CLE weather

Cleveland Hopkins International Airport
Cleveland, Ohio, United States

Public forecast

Using degrees Fahrenheit for public forecast. Weather courtesy of forecast.io.

Current aviation weather report (METAR) for Cleveland Hopkins International Airport

Retrieved 2019/10/21 23:51 UTC (20 minutes ago):

KCLE 212351Z 16010KT 10SM BKN110 BKN200 21/11 A2976 RMK AO2 SLP076 60000 T02110111 10239 20206 56012

Aviation forecast (TAF) for Cleveland Hopkins International Airport

Retrieved 2019-10-22 00:45 UTC (0 seconds ago):

TAF KCLE 212343Z 2200/2306 16012G20KT P6SM SCT070 OVC110 FM220500 19012G22KT P6SM VCSH SCT015 OVC040 TEMPO 2206/2209 3SM SHRA SCT008 OVC015 FM221000 20010KT P6SM SCT010 OVC025 FM221400 21015G25KT P6SM FEW035 SCT200